createdAt,value
2022-12-22T00:02:39.611Z,93.00
2022-12-22T00:05:33.366Z,92.60
2022-12-22T00:08:18.850Z,91.90
2022-12-22T00:11:04.346Z,92.00
2022-12-22T00:13:50.739Z,92.50
2022-12-22T00:16:36.218Z,92.30
2022-12-22T00:19:22.046Z,92.10
2022-12-22T00:22:07.552Z,92.30
2022-12-22T00:24:53.072Z,91.80
2022-12-22T00:27:47.136Z,92.10
2022-12-22T00:30:36.408Z,92.40
2022-12-22T00:33:24.139Z,92.40
2022-12-22T00:36:10.198Z,92.90
2022-12-22T00:38:55.834Z,93.30
2022-12-22T00:41:41.448Z,93.20
2022-12-22T00:44:26.855Z,93.10
2022-12-22T00:47:12.402Z,92.90
2022-12-22T00:50:03.757Z,92.80
2022-12-22T00:52:49.286Z,92.80
2022-12-22T00:55:38.764Z,92.90
2022-12-22T00:58:32.382Z,93.00
2022-12-22T01:01:18.001Z,92.90
2022-12-22T01:04:03.282Z,93.10
2022-12-22T01:06:50.739Z,92.90
2022-12-22T01:09:36.391Z,92.50
2022-12-22T01:12:42.689Z,92.80
2022-12-22T01:15:36.271Z,92.70
2022-12-22T01:18:22.820Z,92.80
2022-12-22T01:21:08.873Z,92.50
2022-12-22T01:23:54.317Z,92.30
2022-12-22T01:26:40.078Z,92.60
2022-12-22T01:29:25.538Z,92.70
2022-12-22T01:32:11.857Z,92.40
2022-12-22T01:34:58.463Z,92.50
2022-12-22T01:37:44.120Z,92.40
2022-12-22T01:40:38.771Z,92.40
2022-12-22T01:43:45.262Z,92.30
2022-12-22T01:47:01.106Z,92.00
2022-12-22T01:49:49.618Z,91.70
2022-12-22T01:52:38.100Z,91.50
2022-12-22T01:55:29.311Z,91.00
2022-12-22T01:58:14.955Z,90.50
2022-12-22T02:01:01.701Z,90.60
2022-12-22T02:03:47.918Z,90.60
2022-12-22T02:06:47.951Z,90.80
2022-12-22T02:09:42.823Z,90.50
2022-12-22T02:12:31.060Z,90.80
2022-12-22T02:15:22.048Z,90.70
2022-12-22T02:18:56.866Z,91.00
2022-12-22T02:21:43.886Z,90.80
2022-12-22T02:24:48.467Z,91.60
2022-12-22T02:27:35.220Z,92.00
2022-12-22T02:30:24.280Z,92.60
2022-12-22T02:33:10.310Z,93.00
2022-12-22T02:36:04.851Z,92.90
2022-12-22T02:39:13.496Z,92.80
2022-12-22T02:42:05.174Z,93.10
2022-12-22T02:45:13.469Z,93.30
2022-12-22T02:48:03.863Z,93.30
2022-12-22T02:50:55.963Z,93.70
2022-12-22T02:53:42.721Z,94.20
2022-12-22T02:56:30.348Z,94.50
2022-12-22T02:59:15.819Z,94.90
2022-12-22T03:02:05.052Z,95.10
2022-12-22T03:04:50.773Z,95.40
2022-12-22T03:07:36.286Z,95.80
2022-12-22T03:10:22.575Z,95.90
2022-12-22T03:13:08.032Z,96.60
2022-12-22T03:15:53.505Z,96.30
2022-12-22T03:18:39.188Z,96.50
2022-12-22T03:21:24.376Z,96.90
2022-12-22T03:24:09.941Z,97.20
2022-12-22T03:26:36.711Z,97.60
2022-12-22T03:29:03.490Z,97.70
2022-12-22T03:31:30.326Z,97.80
2022-12-22T03:33:57.121Z,97.90
2022-12-22T03:36:23.873Z,98.00
2022-12-22T03:38:50.595Z,97.90
2022-12-22T03:41:35.847Z,97.90
2022-12-22T03:44:21.317Z,97.90
2022-12-22T03:46:48.122Z,97.90
2022-12-22T03:49:14.945Z,98.00
2022-12-22T03:51:49.624Z,97.80
2022-12-22T03:54:19.075Z,97.60
2022-12-22T03:56:46.525Z,97.50
2022-12-22T03:59:14.162Z,97.60
2022-12-22T04:01:50.074Z,97.70
2022-12-22T04:04:19.210Z,97.80
2022-12-22T04:06:46.766Z,97.90
2022-12-22T04:09:14.265Z,97.80
2022-12-22T04:12:00.155Z,97.80
2022-12-22T04:14:33.559Z,97.70
2022-12-22T04:17:01.972Z,97.50
2022-12-22T04:19:28.751Z,97.50
2022-12-22T04:21:55.474Z,97.60
2022-12-22T04:24:22.463Z,97.70
2022-12-22T04:26:49.868Z,97.60
2022-12-22T04:29:18.091Z,97.50
2022-12-22T04:31:45.992Z,97.50
2022-12-22T04:34:12.753Z,97.30
2022-12-22T04:36:39.611Z,96.50
2022-12-22T04:39:06.334Z,96.20
2022-12-22T04:41:33.183Z,96.00
2022-12-22T04:43:59.993Z,95.50
2022-12-22T04:46:26.918Z,95.20
2022-12-22T04:48:59.535Z,94.90
2022-12-22T04:51:27.030Z,94.60
2022-12-22T04:53:53.830Z,94.40
2022-12-22T04:56:20.599Z,94.10
2022-12-22T04:58:47.413Z,94.00
2022-12-22T05:01:17.133Z,93.60
2022-12-22T05:03:44.104Z,93.30
2022-12-22T05:06:11.405Z,93.10
2022-12-22T05:08:38.617Z,93.10
2022-12-22T05:11:05.784Z,92.90
2022-12-22T05:13:33.472Z,92.50
2022-12-22T05:16:13.881Z,92.30
2022-12-22T05:18:42.404Z,92.00
2022-12-22T05:21:17.515Z,91.80
2022-12-22T05:23:45.288Z,91.40
2022-12-22T05:26:14.684Z,91.10
2022-12-22T05:28:42.913Z,90.90
2022-12-22T05:31:18.757Z,90.50
2022-12-22T05:33:45.608Z,90.40
2022-12-22T05:36:12.485Z,90.00
2022-12-22T05:38:40.101Z,90.10
2022-12-22T05:41:07.826Z,90.10
2022-12-22T05:43:35.587Z,90.00
2022-12-22T05:46:04.808Z,90.00
2022-12-22T05:48:37.383Z,90.00
2022-12-22T05:51:06.436Z,89.50
2022-12-22T05:53:33.166Z,89.10
2022-12-22T05:55:59.931Z,88.20
2022-12-22T05:58:26.724Z,87.40
2022-12-22T06:00:57.714Z,87.60
2022-12-22T06:03:28.745Z,85.90
2022-12-22T06:05:56.003Z,85.70
2022-12-22T06:08:23.291Z,84.80
2022-12-22T06:10:50.090Z,84.10
2022-12-22T06:13:16.926Z,83.10
2022-12-22T06:15:43.862Z,82.00
2022-12-22T06:18:10.678Z,81.00
2022-12-22T06:20:37.488Z,80.30
2022-12-22T06:23:04.361Z,79.40
2022-12-22T06:25:31.265Z,77.60
2022-12-22T06:27:58.210Z,76.40
2022-12-22T06:30:32.619Z,76.00
2022-12-22T06:33:00.917Z,75.40
2022-12-22T06:35:28.201Z,75.30
2022-12-22T06:37:55.000Z,74.00
2022-12-22T06:40:21.870Z,74.40
2022-12-22T06:43:09.087Z,74.30
2022-12-22T06:45:38.264Z,74.30
2022-12-22T06:48:05.673Z,73.10
2022-12-22T06:50:32.408Z,73.50
2022-12-22T06:52:59.345Z,72.70
2022-12-22T06:55:26.151Z,71.50
2022-12-22T06:57:53.145Z,71.40
2022-12-22T07:00:20.412Z,71.50
2022-12-22T07:02:47.350Z,70.80
2022-12-22T07:05:15.678Z,70.90
2022-12-22T07:07:42.729Z,70.50
2022-12-22T07:10:10.072Z,70.20
2022-12-22T07:12:36.825Z,70.40
2022-12-22T07:15:03.917Z,70.20
2022-12-22T07:17:30.734Z,70.10
2022-12-22T07:19:57.592Z,70.10
2022-12-22T07:22:29.993Z,70.10
2022-12-22T07:24:57.952Z,69.80
2022-12-22T07:27:24.660Z,70.10
2022-12-22T07:29:51.448Z,69.90
2022-12-22T07:32:18.216Z,70.10
2022-12-22T07:34:45.594Z,69.80
2022-12-22T07:37:13.713Z,69.50
2022-12-22T07:39:40.768Z,69.50
2022-12-22T07:42:26.032Z,69.00
2022-12-22T07:44:52.871Z,68.60
2022-12-22T07:47:19.781Z,66.60
2022-12-22T07:50:05.074Z,66.00
2022-12-22T07:52:31.800Z,64.60
2022-12-22T07:54:58.580Z,63.80
2022-12-22T07:57:26.251Z,63.20
2022-12-22T07:59:53.935Z,63.00
2022-12-22T08:02:20.953Z,63.10
2022-12-22T08:04:47.901Z,63.30
2022-12-22T08:07:14.726Z,63.50
2022-12-22T08:09:41.424Z,63.90
2022-12-22T08:12:08.247Z,63.60
2022-12-22T08:14:35.035Z,64.20
2022-12-22T08:17:01.827Z,62.20
2022-12-22T08:19:28.645Z,62.40
2022-12-22T08:21:55.376Z,62.70
2022-12-22T08:24:22.183Z,61.80
2022-12-22T08:26:53.180Z,61.90
2022-12-22T08:29:23.969Z,61.70
2022-12-22T08:31:51.028Z,61.00
2022-12-22T08:34:18.016Z,59.60
2022-12-22T08:36:48.583Z,59.50
2022-12-22T08:39:17.174Z,59.00
2022-12-22T08:41:50.081Z,59.10
2022-12-22T08:44:19.018Z,58.20
2022-12-22T08:46:45.993Z,58.40
2022-12-22T08:49:12.973Z,57.90
2022-12-22T08:51:39.732Z,58.50
2022-12-22T08:54:07.042Z,59.90
2022-12-22T08:56:34.817Z,61.00
2022-12-22T08:59:05.392Z,62.20
2022-12-22T09:01:33.732Z,63.90
2022-12-22T09:04:01.335Z,65.30
2022-12-22T09:06:33.344Z,64.40
2022-12-22T09:09:08.375Z,65.70
2022-12-22T09:11:35.210Z,65.80
2022-12-22T09:14:02.530Z,66.00
2022-12-22T09:16:31.060Z,65.90
2022-12-22T09:18:57.954Z,66.00
2022-12-22T09:21:25.391Z,66.20
2022-12-22T09:23:52.378Z,65.30
2022-12-22T09:26:21.895Z,64.70
2022-12-22T09:28:50.668Z,63.90
2022-12-22T09:31:18.962Z,64.30
2022-12-22T09:33:45.834Z,64.10
2022-12-22T09:36:15.953Z,63.00
2022-12-22T09:38:43.283Z,62.30
2022-12-22T09:41:18.376Z,62.50
2022-12-22T09:43:45.218Z,62.30
2022-12-22T09:46:28.987Z,61.80
2022-12-22T09:48:56.158Z,61.20
2022-12-22T09:51:27.192Z,60.60
2022-12-22T09:54:03.743Z,60.30
2022-12-22T09:56:30.982Z,59.80
2022-12-22T09:58:58.367Z,59.40
2022-12-22T10:01:32.673Z,59.00
2022-12-22T10:04:42.865Z,59.50
2022-12-22T10:07:28.353Z,59.40
2022-12-22T10:09:55.386Z,59.30
2022-12-22T10:12:25.201Z,60.40
2022-12-22T10:14:53.931Z,62.20
2022-12-22T10:17:25.723Z,64.20
2022-12-22T10:19:55.022Z,66.20
2022-12-22T10:22:30.152Z,68.70
2022-12-22T10:24:57.664Z,70.00
2022-12-22T10:27:29.213Z,70.60
2022-12-22T10:30:20.485Z,71.00
2022-12-22T10:33:08.040Z,72.10
2022-12-22T10:35:56.915Z,72.30
2022-12-22T10:38:39.823Z,72.60
2022-12-22T10:41:14.581Z,71.80
2022-12-22T10:44:07.102Z,69.70
2022-12-22T10:46:46.288Z,68.40
2022-12-22T10:52:23.969Z,65.60
2022-12-22T10:55:21.861Z,64.80
2022-12-22T10:57:49.764Z,64.90
2022-12-22T11:00:37.880Z,66.80
2022-12-22T11:03:07.739Z,68.00
2022-12-22T11:05:35.167Z,70.10
2022-12-22T11:08:17.117Z,72.60
2022-12-22T11:10:53.307Z,74.80
2022-12-22T11:13:43.174Z,76.20
2022-12-22T11:16:50.990Z,77.40
2022-12-22T11:19:50.649Z,78.30
2022-12-22T11:22:26.249Z,79.70
2022-12-22T11:25:05.020Z,79.50
2022-12-22T11:27:46.127Z,78.40
2022-12-22T11:30:19.919Z,76.20
2022-12-22T11:33:15.986Z,75.50
2022-12-22T11:36:01.926Z,75.80
2022-12-22T11:38:41.536Z,75.00
2022-12-22T11:41:33.034Z,74.10
2022-12-22T11:44:33.597Z,74.50
2022-12-22T11:47:15.479Z,74.50
2022-12-22T11:50:59.304Z,74.00
2022-12-22T11:53:22.261Z,74.30
2022-12-22T11:56:06.994Z,73.10
2022-12-22T11:58:52.571Z,72.90
2022-12-22T12:01:28.268Z,72.50
2022-12-22T12:04:32.172Z,70.10
2022-12-22T12:07:23.559Z,67.90
2022-12-22T12:09:59.031Z,66.80
2022-12-22T12:12:54.096Z,66.10
2022-12-22T12:15:31.603Z,64.00
2022-12-22T12:18:26.883Z,63.40
2022-12-22T12:21:17.662Z,63.00
2022-12-22T12:23:44.322Z,61.80
2022-12-22T12:26:30.889Z,61.40
2022-12-22T12:29:16.736Z,61.70
2022-12-22T12:31:50.870Z,62.00
2022-12-22T12:34:20.341Z,61.90
2022-12-22T12:37:16.585Z,61.30
2022-12-22T12:40:16.554Z,61.00
2022-12-22T12:42:45.286Z,61.40
2022-12-22T12:45:35.441Z,60.90
2022-12-22T12:48:34.631Z,59.70
2022-12-22T12:51:01.371Z,59.20
2022-12-22T12:53:29.684Z,59.30
2022-12-22T12:56:04.939Z,59.10
2022-12-22T12:58:40.289Z,58.60
2022-12-22T13:01:12.761Z,57.60
2022-12-22T13:06:49.678Z,58.00
2022-12-22T13:12:53.916Z,58.00
2022-12-22T13:15:31.674Z,57.00
2022-12-22T13:17:59.419Z,56.70
2022-12-22T13:20:35.243Z,56.60
2022-12-22T13:23:10.549Z,57.00
2022-12-22T13:25:47.663Z,55.90
2022-12-22T13:28:19.181Z,55.70
2022-12-22T13:30:51.879Z,56.30
2022-12-22T13:33:23.942Z,55.80
2022-12-22T13:35:58.598Z,56.00
2022-12-22T13:38:37.269Z,55.80
2022-12-22T13:41:14.729Z,55.50
2022-12-22T13:43:44.324Z,54.90
2022-12-22T13:46:11.927Z,55.10
2022-12-22T13:48:48.203Z,54.70
2022-12-22T13:51:28.679Z,54.90
2022-12-22T13:54:13.390Z,55.00
2022-12-22T13:56:46.851Z,55.00
2022-12-22T13:59:28.330Z,54.20
2022-12-22T14:02:04.259Z,54.30
2022-12-22T14:04:31.482Z,54.20
2022-12-22T14:07:10.644Z,54.30
2022-12-22T14:09:37.642Z,54.30
2022-12-22T14:12:12.657Z,54.40
2022-12-22T14:14:42.649Z,54.70
2022-12-22T14:17:24.794Z,54.30
2022-12-22T14:19:58.289Z,54.10
2022-12-22T14:22:30.968Z,54.10
2022-12-22T14:25:01.824Z,53.90
2022-12-22T14:27:39.007Z,53.90
2022-12-22T14:30:15.417Z,53.50
2022-12-22T14:32:55.883Z,54.00
2022-12-22T14:35:23.168Z,54.10
2022-12-22T14:37:51.026Z,53.90
2022-12-22T14:40:38.729Z,53.30
2022-12-22T14:43:24.552Z,53.50
2022-12-22T14:46:00.247Z,53.30
2022-12-22T14:48:38.025Z,52.90
2022-12-22T14:51:05.706Z,51.90
2022-12-22T14:53:49.984Z,53.00
2022-12-22T14:56:20.213Z,52.70
2022-12-22T14:58:48.213Z,52.80
2022-12-22T15:01:30.123Z,52.90
2022-12-22T15:04:06.515Z,52.60
2022-12-22T15:06:40.010Z,52.60
2022-12-22T15:09:12.133Z,53.10
2022-12-22T15:12:12.296Z,53.00
2022-12-22T15:14:39.224Z,53.20
2022-12-22T15:17:13.087Z,52.70
2022-12-22T15:19:39.909Z,52.60
2022-12-22T15:22:08.522Z,52.60
2022-12-22T15:24:35.254Z,52.30
2022-12-22T15:27:02.036Z,52.50
2022-12-22T15:29:28.774Z,52.60
2022-12-22T15:31:55.591Z,52.50
2022-12-22T15:34:28.052Z,52.70
2022-12-22T15:36:54.890Z,53.20
2022-12-22T15:39:23.409Z,53.10
2022-12-22T15:41:50.479Z,53.20
2022-12-22T15:44:17.398Z,54.00
2022-12-22T15:46:52.774Z,53.20
2022-12-22T15:49:23.266Z,53.20
2022-12-22T15:51:54.480Z,53.20
2022-12-22T15:54:22.188Z,53.50
2022-12-22T15:56:51.570Z,53.30
2022-12-22T15:59:25.664Z,53.80
2022-12-22T16:02:00.374Z,53.90
2022-12-22T16:04:28.471Z,54.20
2022-12-22T16:06:55.923Z,54.60
2022-12-22T16:09:25.737Z,55.20
2022-12-22T16:11:52.851Z,55.50
2022-12-22T16:14:21.134Z,55.40
2022-12-22T16:16:48.471Z,55.50
2022-12-22T16:19:17.109Z,55.90
2022-12-22T16:21:49.569Z,55.60
2022-12-22T16:24:30.940Z,55.90
2022-12-22T16:26:58.477Z,56.40
2022-12-22T16:29:26.659Z,56.30
2022-12-22T16:31:54.293Z,56.50
2022-12-22T16:34:21.227Z,56.70
2022-12-22T16:36:48.005Z,56.60
2022-12-22T16:39:14.794Z,56.60
2022-12-22T16:41:46.387Z,56.60
2022-12-22T16:47:22.191Z,56.70
2022-12-22T16:49:49.633Z,56.90
2022-12-22T16:52:23.238Z,56.90
2022-12-22T16:54:52.791Z,57.20
2022-12-22T16:57:19.888Z,57.00
2022-12-22T16:59:46.676Z,57.10
2022-12-22T17:02:23.083Z,57.20
2022-12-22T17:04:52.330Z,57.10
2022-12-22T17:07:19.333Z,57.20
2022-12-22T17:09:52.734Z,57.30
2022-12-22T17:12:24.512Z,57.30
2022-12-22T17:14:52.252Z,57.20
2022-12-22T17:17:28.864Z,57.20
2022-12-22T17:19:59.874Z,57.50
2022-12-22T17:22:29.478Z,57.50
2022-12-22T17:24:59.728Z,57.80
2022-12-22T17:27:29.942Z,58.00
2022-12-22T17:29:58.291Z,58.20
2022-12-22T17:32:25.159Z,58.10
2022-12-22T17:34:51.905Z,58.10
2022-12-22T17:37:22.081Z,58.30
2022-12-22T17:39:52.643Z,58.20
2022-12-22T17:42:22.076Z,58.70
2022-12-22T17:44:50.543Z,59.20
2022-12-22T17:47:31.295Z,59.30
2022-12-22T17:49:59.193Z,59.30
2022-12-22T17:52:28.019Z,59.60
2022-12-22T17:54:55.262Z,59.70
2022-12-22T17:57:30.899Z,60.00
2022-12-22T17:59:57.679Z,59.90
2022-12-22T18:02:25.728Z,59.70
2022-12-22T18:04:53.141Z,60.00
2022-12-22T18:07:22.466Z,60.00
2022-12-22T18:09:51.637Z,59.90
2022-12-22T18:12:21.591Z,60.20
2022-12-22T18:14:49.299Z,60.20
2022-12-22T18:17:29.856Z,60.40
2022-12-22T18:20:00.045Z,60.40
2022-12-22T18:22:29.522Z,60.50
2022-12-22T18:24:56.804Z,60.60
2022-12-22T18:27:24.129Z,61.00
2022-12-22T18:29:50.989Z,61.10
2022-12-22T18:32:26.303Z,60.90
2022-12-22T18:34:54.270Z,61.20
2022-12-22T18:37:21.349Z,61.20
2022-12-22T18:39:48.188Z,61.20
2022-12-22T18:42:23.275Z,61.90
2022-12-22T18:44:51.665Z,61.20
2022-12-22T18:47:18.680Z,60.90
2022-12-22T18:49:46.072Z,60.70
2022-12-22T18:52:21.244Z,60.70
2022-12-22T18:54:49.346Z,60.80
2022-12-22T18:57:20.153Z,61.00
2022-12-22T18:59:48.321Z,61.10
2022-12-22T19:02:29.605Z,61.40
2022-12-22T19:04:56.956Z,61.20
2022-12-22T19:07:25.682Z,61.50
2022-12-22T19:09:52.504Z,61.30
2022-12-22T19:12:23.239Z,61.30
2022-12-22T19:14:53.303Z,61.00
2022-12-22T19:17:23.794Z,61.40
2022-12-22T19:19:50.758Z,61.30
2022-12-22T19:22:17.560Z,61.60
2022-12-22T19:24:45.002Z,61.80
2022-12-22T19:27:20.749Z,61.80
2022-12-22T19:29:48.132Z,61.60
2022-12-22T19:32:30.198Z,61.70
2022-12-22T19:34:57.348Z,61.90
2022-12-22T19:37:24.171Z,61.50
2022-12-22T19:39:50.897Z,61.80
2022-12-22T19:42:21.865Z,61.70
2022-12-22T19:44:48.905Z,61.90
2022-12-22T19:47:24.466Z,61.90
2022-12-22T19:49:51.202Z,62.00
2022-12-22T19:52:17.964Z,62.10
2022-12-22T19:54:44.706Z,62.20
2022-12-22T19:57:18.175Z,61.90
2022-12-22T19:59:48.989Z,62.20
2022-12-22T20:02:22.521Z,61.80
2022-12-22T20:04:50.218Z,62.00
2022-12-22T20:07:22.414Z,61.50
2022-12-22T20:09:49.492Z,61.60
2022-12-22T20:12:36.520Z,61.30
2022-12-22T20:15:14.177Z,61.50
2022-12-22T20:17:41.788Z,61.70
2022-12-22T20:20:16.426Z,61.40
2022-12-22T20:22:46.059Z,61.20
2022-12-22T20:25:21.616Z,61.00
2022-12-22T20:27:49.246Z,61.30
2022-12-22T20:30:29.172Z,60.90
2022-12-22T20:32:56.588Z,60.70
2022-12-22T20:35:24.311Z,61.00
2022-12-22T20:37:51.363Z,60.50
2022-12-22T20:40:25.068Z,60.60
2022-12-22T20:42:52.019Z,60.40
2022-12-22T20:45:23.065Z,60.70
2022-12-22T20:47:51.188Z,60.40
2022-12-22T20:50:24.298Z,60.70
2022-12-22T20:52:51.764Z,60.70
2022-12-22T20:55:21.260Z,60.80
2022-12-22T20:57:49.013Z,60.70
2022-12-22T21:00:27.955Z,60.60
2022-12-22T21:02:55.363Z,61.30
2022-12-22T21:05:22.493Z,61.20
2022-12-22T21:07:49.998Z,61.60
2022-12-22T21:10:22.371Z,61.80
2022-12-22T21:12:50.235Z,62.50
2022-12-22T21:15:22.474Z,62.80
2022-12-22T21:17:55.960Z,63.80
2022-12-22T21:20:28.183Z,65.50
2022-12-22T21:22:55.102Z,66.40
2022-12-22T21:25:23.270Z,67.60
2022-12-22T21:27:51.630Z,68.70
2022-12-22T21:30:20.401Z,70.00
2022-12-22T21:32:48.371Z,71.00
2022-12-22T21:35:18.232Z,71.10
2022-12-22T21:37:47.690Z,71.80
2022-12-22T21:40:23.351Z,73.00
2022-12-22T21:42:52.006Z,73.90
2022-12-22T21:45:22.656Z,74.50
2022-12-22T21:47:50.241Z,74.50
2022-12-22T21:50:26.241Z,74.90
2022-12-22T21:52:53.801Z,75.30
2022-12-22T21:55:32.248Z,76.60
2022-12-22T21:57:59.875Z,76.40
2022-12-22T22:00:28.362Z,76.20
2022-12-22T22:02:56.347Z,77.40
2022-12-22T22:05:34.835Z,77.30
2022-12-22T22:08:03.128Z,77.30
2022-12-22T22:10:32.776Z,76.90
2022-12-22T22:13:00.291Z,76.50
2022-12-22T22:15:29.132Z,76.60
2022-12-22T22:17:58.678Z,76.70
2022-12-22T22:20:31.801Z,76.50
2022-12-22T22:23:00.061Z,76.40
2022-12-22T22:25:27.508Z,76.00
2022-12-22T22:27:57.591Z,75.90
2022-12-22T22:30:26.035Z,75.30
2022-12-22T22:32:54.300Z,75.00
2022-12-22T22:35:21.941Z,75.30
2022-12-22T22:37:52.578Z,75.60
2022-12-22T22:40:21.878Z,76.20
2022-12-22T22:42:49.130Z,76.70
2022-12-22T22:45:23.109Z,77.40
2022-12-22T22:47:51.617Z,78.40
2022-12-22T22:50:20.325Z,79.80
2022-12-22T22:52:48.158Z,80.20
2022-12-22T22:55:15.812Z,80.40
2022-12-22T22:57:42.700Z,82.50
2022-12-22T23:00:13.253Z,83.20
2022-12-22T23:02:40.262Z,83.60
2022-12-22T23:05:07.670Z,84.20
2022-12-22T23:07:35.626Z,85.30
2022-12-22T23:10:02.789Z,85.50
2022-12-22T23:12:29.568Z,86.30
2022-12-22T23:14:56.363Z,87.60
2022-12-22T23:17:23.194Z,87.80
2022-12-22T23:19:49.987Z,88.90
2022-12-22T23:22:17.280Z,90.10
2022-12-22T23:24:44.083Z,90.30
2022-12-22T23:27:11.637Z,90.60
2022-12-22T23:29:38.569Z,90.70
2022-12-22T23:32:05.959Z,90.60
2022-12-22T23:34:32.948Z,91.10
2022-12-22T23:36:59.769Z,91.30
2022-12-22T23:39:26.598Z,91.80
2022-12-22T23:41:53.342Z,91.60
2022-12-22T23:44:20.033Z,91.80
2022-12-22T23:46:46.854Z,91.90
2022-12-22T23:49:14.115Z,91.70
2022-12-22T23:51:41.005Z,91.70
2022-12-22T23:54:07.733Z,91.60
2022-12-22T23:56:34.581Z,91.40
2022-12-22T23:59:01.317Z,91.60
